createdAt,value
2023-01-29T00:02:05.903Z,4.03
2023-01-29T00:04:32.751Z,3.70
2023-01-29T00:07:01.344Z,3.58
2023-01-29T00:09:28.854Z,3.75
2023-01-29T00:11:57.286Z,3.40
2023-01-29T00:14:25.491Z,2.97
2023-01-29T00:16:51.952Z,2.85
2023-01-29T00:19:22.463Z,2.80
2023-01-29T00:21:50.722Z,3.10
2023-01-29T00:24:17.264Z,2.63
2023-01-29T00:26:44.075Z,2.90
2023-01-29T00:29:11.202Z,2.92
2023-01-29T00:31:38.138Z,3.35
2023-01-29T00:34:04.706Z,2.97
2023-01-29T00:36:31.409Z,2.80
2023-01-29T00:39:00.665Z,3.00
2023-01-29T00:41:48.741Z,2.45
2023-01-29T00:44:33.793Z,2.45
2023-01-29T00:47:05.096Z,2.70
2023-01-29T00:49:31.568Z,2.65
2023-01-29T00:52:18.823Z,2.50
2023-01-29T00:54:45.336Z,2.30
2023-01-29T00:57:11.871Z,2.63
2023-01-29T00:59:40.187Z,2.28
2023-01-29T01:02:25.653Z,2.40
2023-01-29T01:04:52.423Z,2.38
2023-01-29T01:07:19.498Z,2.47
2023-01-29T01:10:06.499Z,2.75
2023-01-29T01:12:33.209Z,2.00
2023-01-29T01:14:59.820Z,2.35
2023-01-29T01:17:26.500Z,2.80
2023-01-29T01:19:52.996Z,2.60
2023-01-29T01:22:21.888Z,3.45
2023-01-29T01:24:50.143Z,3.40
2023-01-29T01:27:17.523Z,2.90
2023-01-29T01:29:44.070Z,3.00
2023-01-29T01:32:10.928Z,3.70
2023-01-29T01:34:37.690Z,2.70
2023-01-29T01:37:04.334Z,3.40
2023-01-29T01:39:37.246Z,3.33
2023-01-29T01:42:03.848Z,3.35
2023-01-29T01:44:53.474Z,3.72
2023-01-29T01:47:24.806Z,4.22
2023-01-29T01:49:52.359Z,3.60
2023-01-29T01:52:21.058Z,3.65
2023-01-29T01:54:48.995Z,3.42
2023-01-29T01:57:25.287Z,3.28
2023-01-29T01:59:58.245Z,4.07
2023-01-29T02:02:45.859Z,3.38
2023-01-29T02:05:32.685Z,3.47
2023-01-29T02:08:18.548Z,3.47
2023-01-29T02:10:47.064Z,3.20
2023-01-29T02:13:18.616Z,2.53
2023-01-29T02:15:48.718Z,3.85
2023-01-29T02:18:21.446Z,3.45
2023-01-29T02:21:09.051Z,4.07
2023-01-29T02:23:44.505Z,3.30
2023-01-29T02:26:54.131Z,2.80
2023-01-29T02:29:35.513Z,2.80
2023-01-29T02:32:15.361Z,3.00
2023-01-29T02:35:28.830Z,4.13
2023-01-29T02:38:22.269Z,3.40
2023-01-29T02:41:30.061Z,3.80
2023-01-29T02:44:11.459Z,2.78
2023-01-29T02:46:47.085Z,3.00
2023-01-29T02:49:33.177Z,3.70
2023-01-29T02:54:41.561Z,2.40
2023-01-29T02:57:20.291Z,3.47
2023-01-29T03:00:05.270Z,2.67
2023-01-29T03:02:46.629Z,2.88
2023-01-29T03:05:19.576Z,2.42
2023-01-29T03:07:55.987Z,3.05
2023-01-29T03:10:30.437Z,2.70
2023-01-29T03:13:15.101Z,3.20
2023-01-29T03:15:48.712Z,3.55
2023-01-29T03:18:18.887Z,3.33
2023-01-29T03:20:52.215Z,2.80
2023-01-29T03:23:27.091Z,3.50
2023-01-29T03:26:18.334Z,2.53
2023-01-29T03:29:05.890Z,2.83
2023-01-29T03:31:55.383Z,2.95
2023-01-29T03:34:28.511Z,3.08
2023-01-29T03:37:02.506Z,2.80
2023-01-29T03:39:29.751Z,3.20
2023-01-29T03:42:03.653Z,2.75
2023-01-29T03:44:49.663Z,2.65
2023-01-29T03:47:40.992Z,2.90
2023-01-29T03:50:16.840Z,2.58
2023-01-29T03:52:52.508Z,2.65
2023-01-29T03:55:36.959Z,2.00
2023-01-29T03:58:20.287Z,2.38
2023-01-29T04:00:59.020Z,2.22
2023-01-29T04:03:55.287Z,2.42
2023-01-29T04:06:29.890Z,2.65
2023-01-29T04:09:14.503Z,2.38
2023-01-29T04:11:45.141Z,2.60
2023-01-29T04:14:12.371Z,2.88
2023-01-29T04:16:44.860Z,3.67
2023-01-29T04:19:12.055Z,3.05
2023-01-29T04:21:38.810Z,2.85
2023-01-29T04:24:09.484Z,3.25
2023-01-29T04:26:55.244Z,3.80
2023-01-29T04:29:36.281Z,3.78
2023-01-29T04:32:09.525Z,3.63
2023-01-29T04:35:10.985Z,3.92
2023-01-29T04:37:45.033Z,4.25
2023-01-29T04:40:32.122Z,3.22
2023-01-29T04:43:38.689Z,3.20
2023-01-29T04:46:10.554Z,3.92
2023-01-29T04:48:46.020Z,3.83
2023-01-29T04:51:37.178Z,4.25
2023-01-29T04:54:17.591Z,4.38
2023-01-29T04:56:56.410Z,4.35
2023-01-29T04:59:47.010Z,3.92
2023-01-29T05:02:14.010Z,4.25
2023-01-29T05:04:44.684Z,4.03
2023-01-29T05:07:17.377Z,3.92
2023-01-29T05:09:45.668Z,4.38
2023-01-29T05:12:14.505Z,4.85
2023-01-29T05:14:46.225Z,5.00
2023-01-29T05:17:18.706Z,5.05
2023-01-29T05:19:46.063Z,3.83
2023-01-29T05:22:17.243Z,4.50
2023-01-29T05:24:44.586Z,4.57
2023-01-29T05:27:39.064Z,4.60
2023-01-29T05:30:06.265Z,4.78
2023-01-29T05:32:34.727Z,3.67
2023-01-29T05:35:01.559Z,3.75
2023-01-29T05:37:28.022Z,3.95
2023-01-29T05:39:54.590Z,3.90
2023-01-29T05:42:27.863Z,3.83
2023-01-29T05:44:54.389Z,3.50
2023-01-29T05:47:21.067Z,3.72
2023-01-29T05:49:49.435Z,3.65
2023-01-29T05:52:15.899Z,2.90
2023-01-29T05:54:44.563Z,3.35
2023-01-29T05:57:13.314Z,3.17
2023-01-29T05:59:39.786Z,3.13
2023-01-29T06:02:06.426Z,2.97
2023-01-29T06:04:42.790Z,5.93
2023-01-29T06:07:12.882Z,5.40
2023-01-29T06:09:39.361Z,4.75
2023-01-29T06:12:08.143Z,4.43
2023-01-29T06:14:36.707Z,3.40
2023-01-29T06:17:03.205Z,4.10
2023-01-29T06:19:29.840Z,3.38
2023-01-29T06:21:56.401Z,4.22
2023-01-29T06:24:23.386Z,3.38
2023-01-29T06:26:55.466Z,3.58
2023-01-29T06:29:21.999Z,3.13
2023-01-29T06:31:48.551Z,3.70
2023-01-29T06:34:15.251Z,3.47
2023-01-29T06:36:42.011Z,3.28
2023-01-29T06:39:08.547Z,3.70
2023-01-29T06:41:37.604Z,4.07
2023-01-29T06:44:04.266Z,4.13
2023-01-29T06:46:31.228Z,5.65
2023-01-29T06:49:02.260Z,9.48
2023-01-29T06:51:28.924Z,8.07
2023-01-29T06:53:56.454Z,10.07
2023-01-29T06:56:25.866Z,8.23
2023-01-29T06:58:52.642Z,8.18
2023-01-29T07:01:34.700Z,9.48
2023-01-29T07:04:04.732Z,8.43
2023-01-29T07:06:31.440Z,8.15
2023-01-29T07:08:58.134Z,6.85
2023-01-29T07:11:24.785Z,9.13
2023-01-29T07:13:51.303Z,8.10
2023-01-29T07:16:19.202Z,6.72
2023-01-29T07:18:47.608Z,8.57
2023-01-29T07:21:14.323Z,8.13
2023-01-29T07:23:40.792Z,6.93
2023-01-29T07:26:07.576Z,8.48
2023-01-29T07:28:38.457Z,8.40
2023-01-29T07:31:06.489Z,7.60
2023-01-29T07:33:44.218Z,7.03
2023-01-29T07:36:13.456Z,9.45
2023-01-29T07:38:39.984Z,8.75
2023-01-29T07:41:13.419Z,8.35
2023-01-29T07:43:39.948Z,10.35
2023-01-29T07:46:06.511Z,10.85
2023-01-29T07:48:33.097Z,8.90
2023-01-29T07:51:00.055Z,9.00
2023-01-29T07:53:27.982Z,11.15
2023-01-29T07:55:54.648Z,10.25
2023-01-29T07:58:21.387Z,10.50
2023-01-29T08:00:47.926Z,12.13
2023-01-29T08:03:17.597Z,9.73
2023-01-29T08:05:45.032Z,11.30
2023-01-29T08:08:11.572Z,12.38
2023-01-29T08:10:41.353Z,11.80
2023-01-29T08:13:08.670Z,11.98
2023-01-29T08:15:38.007Z,9.43
2023-01-29T08:18:12.199Z,11.32
2023-01-29T08:20:38.806Z,10.23
2023-01-29T08:23:10.290Z,9.15
2023-01-29T08:25:36.935Z,8.27
2023-01-29T08:28:04.876Z,10.68
2023-01-29T08:30:33.697Z,11.52
2023-01-29T08:33:01.141Z,8.75
2023-01-29T08:35:27.655Z,8.90
2023-01-29T08:38:02.150Z,9.48
2023-01-29T08:40:33.686Z,9.65
2023-01-29T08:43:09.489Z,7.72
2023-01-29T08:45:39.192Z,8.02
2023-01-29T08:48:06.135Z,9.38
2023-01-29T08:50:34.866Z,10.63
2023-01-29T08:53:03.448Z,10.80
2023-01-29T08:55:29.976Z,11.10
2023-01-29T08:57:59.534Z,9.90
2023-01-29T09:00:28.345Z,9.43
2023-01-29T09:02:54.936Z,11.75
2023-01-29T09:05:24.925Z,11.38
2023-01-29T09:07:54.227Z,8.93
2023-01-29T09:10:22.679Z,10.93
2023-01-29T09:12:49.203Z,11.52
2023-01-29T09:15:17.867Z,11.77
2023-01-29T09:17:44.538Z,13.02
2023-01-29T09:20:11.652Z,12.73
2023-01-29T09:22:43.267Z,10.68
2023-01-29T09:25:10.782Z,11.60
2023-01-29T09:27:37.439Z,12.02
2023-01-29T09:30:05.642Z,11.02
2023-01-29T09:35:18.976Z,12.93
2023-01-29T09:37:49.980Z,10.43
2023-01-29T09:40:31.277Z,13.00
2023-01-29T09:43:07.964Z,13.05
2023-01-29T09:45:37.132Z,12.35
2023-01-29T09:48:05.788Z,13.43
2023-01-29T09:50:49.427Z,13.63
2023-01-29T09:53:38.732Z,12.20
2023-01-29T09:56:13.001Z,13.13
2023-01-29T09:58:42.376Z,13.00
2023-01-29T10:01:33.724Z,12.95
2023-01-29T10:04:12.053Z,12.55
2023-01-29T10:06:47.482Z,13.38
2023-01-29T10:09:30.751Z,14.55
2023-01-29T10:12:29.658Z,14.43
2023-01-29T10:15:05.079Z,14.43
2023-01-29T10:17:50.540Z,13.00
2023-01-29T10:20:27.333Z,12.68
2023-01-29T10:23:07.821Z,14.68
2023-01-29T10:25:39.195Z,15.32
2023-01-29T10:28:16.956Z,14.75
2023-01-29T10:30:49.003Z,12.98
2023-01-29T10:33:22.271Z,12.18
2023-01-29T10:35:55.344Z,11.10
2023-01-29T10:38:42.988Z,12.52
2023-01-29T10:41:28.022Z,11.07
2023-01-29T10:44:20.138Z,11.80
2023-01-29T10:46:58.099Z,10.45
2023-01-29T10:50:17.439Z,11.23
2023-01-29T10:52:53.067Z,10.38
2023-01-29T10:55:41.235Z,9.30
2023-01-29T10:58:29.463Z,12.05
2023-01-29T11:00:58.331Z,9.55
2023-01-29T11:03:30.479Z,10.85
2023-01-29T11:06:10.231Z,9.07
2023-01-29T11:09:12.103Z,10.80
2023-01-29T11:11:43.248Z,9.40
2023-01-29T11:14:15.191Z,9.27
2023-01-29T11:16:49.538Z,10.35
2023-01-29T11:19:16.678Z,9.75
2023-01-29T11:21:57.439Z,10.50
2023-01-29T11:24:23.935Z,10.40
2023-01-29T11:26:53.095Z,10.68
2023-01-29T11:29:46.237Z,9.93
2023-01-29T11:32:24.568Z,9.93
2023-01-29T11:35:00.156Z,8.43
2023-01-29T11:37:41.134Z,9.52
2023-01-29T11:40:37.169Z,7.50
2023-01-29T11:43:28.206Z,8.18
2023-01-29T11:46:00.377Z,8.85
2023-01-29T11:48:51.569Z,8.50
2023-01-29T11:51:27.192Z,7.72
2023-01-29T11:54:00.574Z,8.27
2023-01-29T11:56:42.862Z,7.80
2023-01-29T11:59:37.162Z,7.18
2023-01-29T12:02:32.243Z,7.47
2023-01-29T12:05:15.404Z,6.93
2023-01-29T12:07:44.343Z,6.85
2023-01-29T12:10:36.596Z,6.72
2023-01-29T12:13:23.132Z,5.10
2023-01-29T12:15:49.922Z,6.97
2023-01-29T12:18:34.592Z,6.60
2023-01-29T12:21:24.237Z,5.60
2023-01-29T12:24:15.551Z,5.53
2023-01-29T12:26:51.857Z,5.97
2023-01-29T12:29:57.689Z,6.45
2023-01-29T12:32:26.931Z,5.93
2023-01-29T12:35:13.822Z,6.78
2023-01-29T12:38:01.028Z,8.35
2023-01-29T12:40:33.887Z,7.85
2023-01-29T12:43:06.856Z,7.00
2023-01-29T12:45:41.300Z,9.40
2023-01-29T12:48:12.163Z,11.38
2023-01-29T12:50:38.889Z,12.60
2023-01-29T12:53:19.343Z,10.57
2023-01-29T12:55:53.905Z,9.65
2023-01-29T12:58:28.854Z,7.82
2023-01-29T13:00:59.269Z,9.18
2023-01-29T13:03:57.167Z,8.73
2023-01-29T13:06:30.383Z,7.78
2023-01-29T13:09:11.661Z,8.18
2023-01-29T13:11:43.911Z,6.65
2023-01-29T13:14:24.209Z,6.88
2023-01-29T13:17:06.960Z,6.68
2023-01-29T13:19:41.128Z,6.43
2023-01-29T13:22:22.603Z,6.05
2023-01-29T13:24:58.682Z,5.07
2023-01-29T13:27:33.893Z,5.60
2023-01-29T13:30:02.810Z,5.18
2023-01-29T13:32:31.536Z,12.93
2023-01-29T13:35:22.794Z,7.43
2023-01-29T13:37:53.425Z,9.35
2023-01-29T13:40:27.450Z,9.60
2023-01-29T13:42:56.007Z,6.55
2023-01-29T13:45:34.088Z,6.55
2023-01-29T13:48:21.827Z,7.13
2023-01-29T13:50:52.160Z,8.45
2023-01-29T13:53:25.023Z,5.88
2023-01-29T13:55:51.687Z,5.40
2023-01-29T13:58:44.176Z,6.00
2023-01-29T14:01:10.829Z,4.78
2023-01-29T14:04:03.695Z,4.93
2023-01-29T14:06:45.624Z,4.88
2023-01-29T14:09:33.893Z,4.75
2023-01-29T14:12:00.672Z,5.93
2023-01-29T14:14:48.927Z,5.75
2023-01-29T14:17:17.454Z,4.90
2023-01-29T14:19:51.715Z,6.05
2023-01-29T14:22:24.611Z,5.60
2023-01-29T14:24:57.672Z,4.60
2023-01-29T14:27:27.756Z,6.00
2023-01-29T14:30:04.638Z,5.68
2023-01-29T14:32:31.720Z,5.22
2023-01-29T14:35:03.968Z,5.43
2023-01-29T14:37:42.225Z,6.00
2023-01-29T14:40:11.455Z,6.55
2023-01-29T14:42:47.360Z,5.03
2023-01-29T14:48:51.721Z,5.60
2023-01-29T14:51:20.434Z,5.07
2023-01-29T14:53:53.654Z,5.00
2023-01-29T14:57:08.555Z,4.75
2023-01-29T14:59:52.173Z,5.35
2023-01-29T15:02:33.736Z,5.13
2023-01-29T15:05:02.637Z,5.00
2023-01-29T15:07:42.366Z,4.25
2023-01-29T15:10:22.716Z,3.40
2023-01-29T15:12:58.239Z,5.07
2023-01-29T15:15:47.312Z,4.32
2023-01-29T15:18:34.723Z,3.97
2023-01-29T15:21:15.714Z,4.68
2023-01-29T15:23:47.795Z,4.43
2023-01-29T15:26:27.256Z,4.20
2023-01-29T15:29:03.547Z,4.10
2023-01-29T15:31:31.375Z,4.32
2023-01-29T15:34:03.096Z,3.45
2023-01-29T15:36:32.133Z,4.55
2023-01-29T15:39:19.366Z,3.70
2023-01-29T15:41:48.722Z,5.15
2023-01-29T15:44:24.588Z,4.00
2023-01-29T15:46:58.634Z,5.18
2023-01-29T15:49:33.959Z,5.00
2023-01-29T15:52:05.299Z,4.60
2023-01-29T15:54:36.167Z,4.95
2023-01-29T15:57:03.608Z,5.03
2023-01-29T15:59:35.297Z,4.43
2023-01-29T16:02:50.968Z,5.03
2023-01-29T16:05:23.867Z,3.80
2023-01-29T16:07:52.377Z,4.38
2023-01-29T16:10:24.158Z,4.60
2023-01-29T16:12:52.121Z,4.60
2023-01-29T16:15:34.384Z,3.60
2023-01-29T16:18:03.581Z,4.00
2023-01-29T16:20:41.582Z,4.80
2023-01-29T16:23:17.574Z,5.28
2023-01-29T16:25:44.271Z,5.10
2023-01-29T16:28:11.197Z,4.50
2023-01-29T16:30:38.870Z,5.68
2023-01-29T16:33:10.332Z,5.57
2023-01-29T16:35:37.127Z,4.97
2023-01-29T16:38:08.140Z,4.65
2023-01-29T16:40:38.166Z,5.88
2023-01-29T16:43:42.779Z,5.32
2023-01-29T16:46:35.906Z,4.45
2023-01-29T16:49:03.023Z,5.00
2023-01-29T16:51:39.883Z,6.80
2023-01-29T16:54:22.263Z,6.45
2023-01-29T16:56:58.105Z,7.13
2023-01-29T17:02:08.027Z,8.50
2023-01-29T17:04:34.570Z,6.65
2023-01-29T17:07:02.381Z,6.35
2023-01-29T17:09:35.441Z,5.60
2023-01-29T17:12:06.842Z,5.00
2023-01-29T17:14:40.367Z,4.18
2023-01-29T17:17:15.499Z,4.57
2023-01-29T17:19:42.011Z,3.78
2023-01-29T17:22:14.700Z,4.88
2023-01-29T17:24:48.169Z,6.68
2023-01-29T17:27:22.731Z,6.28
2023-01-29T17:29:57.805Z,5.80
2023-01-29T17:32:25.100Z,4.82
2023-01-29T17:37:47.499Z,4.93
2023-01-29T17:40:43.687Z,5.15
2023-01-29T17:43:11.895Z,6.20
2023-01-29T17:45:41.154Z,9.65
2023-01-29T17:48:27.127Z,6.95
2023-01-29T17:50:57.005Z,5.93
2023-01-29T17:53:26.535Z,8.82
2023-01-29T17:56:07.208Z,8.65
2023-01-29T17:58:36.549Z,8.32
2023-01-29T18:01:03.169Z,6.35
2023-01-29T18:03:32.362Z,7.03
2023-01-29T18:05:59.079Z,5.70
2023-01-29T18:08:32.967Z,8.18
2023-01-29T18:11:00.571Z,8.52
2023-01-29T18:13:27.769Z,7.07
2023-01-29T18:15:54.463Z,7.25
2023-01-29T18:18:23.521Z,7.25
2023-01-29T18:20:50.539Z,7.15
2023-01-29T18:23:17.366Z,7.43
2023-01-29T18:25:55.099Z,9.35
2023-01-29T18:28:21.583Z,7.90
2023-01-29T18:30:48.185Z,8.85
2023-01-29T18:33:18.035Z,8.23
2023-01-29T18:35:45.280Z,7.28
2023-01-29T18:38:11.966Z,7.80
2023-01-29T18:40:40.559Z,9.77
2023-01-29T18:43:08.027Z,8.43
2023-01-29T18:45:34.670Z,8.23
2023-01-29T18:48:03.289Z,7.32
2023-01-29T18:50:30.048Z,7.43
2023-01-29T18:52:56.609Z,6.05
2023-01-29T18:55:24.014Z,6.25
2023-01-29T18:58:26.733Z,6.80
2023-01-29T19:00:41.300Z,6.88
2023-01-29T19:03:08.075Z,6.30
2023-01-29T19:05:34.568Z,7.00
2023-01-29T19:08:03.687Z,7.85
2023-01-29T19:10:30.233Z,8.82
2023-01-29T19:12:56.810Z,7.53
2023-01-29T19:15:23.562Z,10.48
2023-01-29T19:17:50.969Z,11.13
2023-01-29T19:20:21.986Z,17.60
2023-01-29T19:22:48.746Z,9.77
2023-01-29T19:25:16.147Z,9.48
2023-01-29T19:27:48.928Z,8.07
2023-01-29T19:30:15.801Z,6.47
2023-01-29T19:32:42.367Z,7.95
2023-01-29T19:35:08.858Z,9.23
2023-01-29T19:37:35.406Z,8.00
2023-01-29T19:40:03.911Z,8.45
2023-01-29T19:42:30.487Z,8.05
2023-01-29T19:44:57.063Z,9.00
2023-01-29T19:47:23.897Z,8.02
2023-01-29T19:49:50.547Z,7.90
2023-01-29T19:52:51.646Z,8.88
2023-01-29T19:55:20.753Z,8.50
2023-01-29T19:57:47.652Z,5.15
2023-01-29T20:00:17.441Z,6.05
2023-01-29T20:02:44.073Z,6.10
2023-01-29T20:05:12.771Z,6.88
2023-01-29T20:07:42.503Z,5.93
2023-01-29T20:10:15.473Z,7.78
2023-01-29T20:12:44.575Z,5.68
2023-01-29T20:15:12.237Z,8.57
2023-01-29T20:17:41.086Z,6.38
2023-01-29T20:20:10.325Z,8.60
2023-01-29T20:22:36.896Z,6.53
2023-01-29T20:25:03.587Z,9.82
2023-01-29T20:27:30.123Z,6.10
2023-01-29T20:29:57.407Z,5.25
2023-01-29T20:32:25.782Z,6.38
2023-01-29T20:34:52.556Z,7.72
2023-01-29T20:37:19.630Z,6.70
2023-01-29T20:39:46.335Z,8.40
2023-01-29T20:42:13.027Z,8.50
2023-01-29T20:44:39.707Z,7.18
2023-01-29T20:47:06.290Z,8.13
2023-01-29T20:49:33.072Z,7.30
2023-01-29T20:51:59.563Z,6.88
2023-01-29T20:54:28.346Z,6.75
2023-01-29T20:56:55.068Z,7.15
2023-01-29T20:59:22.980Z,9.38
2023-01-29T21:01:51.270Z,8.15
2023-01-29T21:04:17.866Z,6.50
2023-01-29T21:06:44.413Z,5.60
2023-01-29T21:09:11.093Z,6.13
2023-01-29T21:11:37.566Z,5.45
2023-01-29T21:14:04.155Z,6.50
2023-01-29T21:16:30.893Z,9.32
2023-01-29T21:18:58.506Z,8.95
2023-01-29T21:21:28.609Z,11.57
2023-01-29T21:23:55.277Z,10.52
2023-01-29T21:26:23.306Z,9.75
2023-01-29T21:28:50.206Z,7.60
2023-01-29T21:31:19.598Z,7.78
2023-01-29T21:33:46.139Z,7.20
2023-01-29T21:36:13.089Z,7.03
2023-01-29T21:38:40.037Z,7.10
2023-01-29T21:41:08.949Z,6.03
2023-01-29T21:43:35.792Z,6.85
2023-01-29T21:46:05.370Z,7.13
2023-01-29T21:48:31.941Z,5.97
2023-01-29T21:50:58.429Z,11.07
2023-01-29T21:53:30.329Z,9.73
2023-01-29T21:56:04.050Z,7.05
2023-01-29T21:58:33.512Z,7.55
2023-01-29T22:01:18.444Z,7.72
2023-01-29T22:03:48.452Z,7.53
2023-01-29T22:06:15.533Z,7.60
2023-01-29T22:08:42.300Z,6.25
2023-01-29T22:11:11.405Z,7.95
2023-01-29T22:13:38.159Z,5.50
2023-01-29T22:16:06.020Z,5.80
2023-01-29T22:18:41.655Z,5.65
2023-01-29T22:23:36.348Z,7.32
2023-01-29T22:26:09.695Z,5.05
2023-01-29T22:28:36.259Z,5.43
2023-01-29T22:31:04.193Z,4.10
2023-01-29T22:33:33.286Z,5.15
2023-01-29T22:36:00.379Z,4.38
2023-01-29T22:38:26.925Z,6.78
2023-01-29T22:40:57.619Z,6.28
2023-01-29T22:43:26.021Z,6.05
2023-01-29T22:45:53.067Z,5.93
2023-01-29T22:48:26.551Z,6.20
2023-01-29T22:51:11.868Z,6.30
2023-01-29T22:53:44.570Z,8.77
2023-01-29T22:56:11.933Z,5.50
2023-01-29T22:58:38.689Z,5.15
2023-01-29T23:01:07.428Z,6.22
2023-01-29T23:03:34.444Z,4.90
2023-01-29T23:06:05.311Z,5.90
2023-01-29T23:08:36.733Z,6.32
2023-01-29T23:11:15.290Z,5.70
2023-01-29T23:13:53.178Z,6.30
2023-01-29T23:16:23.092Z,5.22
2023-01-29T23:18:51.874Z,5.75
2023-01-29T23:21:19.649Z,5.22
2023-01-29T23:23:46.934Z,6.75
2023-01-29T23:26:32.236Z,7.07
2023-01-29T23:29:01.225Z,7.55
2023-01-29T23:31:27.998Z,10.73
2023-01-29T23:33:56.315Z,10.98
2023-01-29T23:36:22.809Z,10.02
2023-01-29T23:38:49.247Z,10.45
2023-01-29T23:41:17.530Z,8.05
2023-01-29T23:43:46.275Z,9.23
2023-01-29T23:46:12.921Z,11.75
2023-01-29T23:48:41.287Z,9.80
2023-01-29T23:51:07.769Z,9.65
2023-01-29T23:53:36.183Z,8.23
2023-01-29T23:56:04.938Z,7.38
2023-01-29T23:58:32.733Z,9.82
